Latest Coastal Weather Observations for Double Island Point

IDQ60701

Issued at 1:15 pm EST Thursday 28 August 2014 (issued every 10 minutes, with the page automatically refreshed every 10 minutes)

About coastal observations | Map of coastal stations | Coastal observations for QLD | Marine services | Other Formats
Station Details ID: 040068 Name: DOUBLE ISLAND POINT LIGHTHOUSE Lat: -25.93 Lon: 153.19 Height: 95.64 m
Data from the previous 72 hours. | See also: Recent months at Double Island Point
Date/Time
EST
Temp

°C
Wind Pressure Rain
since 9am
mm
Weather Cloud Vis
km
Sea
Height
m
Swell
Dir
 
Speed
knots
Gust
knots
hPa Trend Height
m
Period
s
Dir
28/01:00pm 18.7 SSE 40 51 1013.9 - 0.2 - - - - - - -
28/12:30pm 19.5 S 32 43 1014.3 - 0.2 - - - - - - -
28/12:00pm 19.4 S 34 47 1014.4 - 0.2 Recent precip. - - - - - -
28/11:34am 19.0 S 28 38 1014.6 - 0.2 - - - - - - -
28/11:30am 19.1 S 26 35 1014.7 - 0.2 - - - - - - -
28/11:15am 18.7 S 29 39 1014.8 - 0.2 - - - - - - -
28/11:00am 18.5 S 32 41 1014.7 - 0.0 - - - - - - -
28/10:50am 18.2 S 32 43 1014.7 - 0.0 - - - - - - -
28/10:43am 18.2 S 33 39 1014.7 - 0.0 - - - - - - -
28/10:36am 17.8 S 21 34 1015.1 - 0.0 - - - - - - -
28/10:30am 17.4 S 19 26 1015.3 - 0.0 - - - - - - -
28/10:00am 16.9 SSW 22 30 1015.5 - 0.0 - - - - - - -
28/09:39am 16.9 SSW 19 30 1015.2 - 0.0 - - - - - - -
28/09:30am 16.6 SSW 19 25 1015.4 - 0.0 - - - - - - -
28/09:13am 15.5 SSW 15 25 1015.3 - 0.0 - - - - - - -
28/09:00am 14.9 SW 13 21 1015.1 - 12.8 - - - - - - -
28/08:30am 14.7 SW 13 22 1015.2 - 12.8 - - - - - - -
28/08:00am 14.3 SW 15 22 1015.0 - 12.8 - - - - - - -
28/07:30am 13.7 WSW 15 23 1014.8 - 12.8 - - - - - - -
28/07:11am 13.7 SW 15 26 1014.6 - 12.8 - - - - - - -
28/07:00am 13.2 SW 15 22 1014.5 - 12.8 - - - - - - -
28/06:30am 13.4 SW 18 24 1014.1 - 12.8 - - - - - - -
28/06:00am 12.8 WSW 15 20 1013.9 - 12.8 - - - - - - -
28/05:30am 13.9 SSW 16 21 1013.6 - 12.8 - - - - - - -
28/05:00am 13.3 SSW 16 20 1013.2 - 12.8 - - - - - - -
28/04:30am 12.9 SSW 17 22 1013.2 - 12.8 - - - - - - -
28/04:00am 12.6 SW 18 24 1013.2 - 12.8 - - - - - - -
28/03:30am 12.3 SW 17 23 1013.2 - 12.8 - - - - - - -
28/03:00am 12.2 WSW 14 19 1013.1 - 12.8 - - - - - - -
28/02:30am 12.3 WSW 13 15 1013.3 - 12.8 - - - - - - -
28/02:00am 12.3 W 11 15 1013.5 - 12.8 - - - - - - -
28/01:30am 12.0 WNW 9 12 1013.9 - 12.8 - - - - - - -
28/01:00am 12.5 WNW 10 14 1014.0 - 12.8 - - - - - - -
28/12:30am 12.5 W 11 15 1014.2 - 12.8 - - - - - - -
28/12:00am 12.6 WNW 13 16 1014.1 - 12.8 - - - - - - -
 
Date/Time
EST
Temp

°C
Wind Pressure Rain
since 9am
mm
Weather Cloud Vis
km
Sea
Height
m
Swell
Dir
 
Speed
knots
Gust
knots
hPa Trend Height
m
Period
s
Dir
27/11:30pm 12.7 NW 12 16 1014.5 - 12.8 - - - - - - -
27/11:00pm 13.4 W 11 15 1014.5 - 12.8 - - - - - - -
27/10:30pm 13.7 WSW 8 10 1014.9 - 12.8 - - - - - - -
27/10:00pm 14.1 WNW 10 13 1014.8 - 12.8 - - - - - - -
27/09:30pm 13.6 SSW 8 9 1014.9 - 12.8 - - - - - - -
27/09:00pm 13.4 S 10 13 1015.1 - 12.8 - - - - - - -
27/08:30pm 13.6 SSW 13 15 1015.2 - 12.8 - - - - - - -
27/08:00pm 13.6 SSW 15 18 1015.2 - 12.8 - - - - - - -
27/07:30pm 13.9 S 15 18 1014.8 - 12.8 - - - - - - -
27/07:00pm 13.2 S 13 17 1014.9 - 12.8 - - - - - - -
27/06:30pm 13.4 S 13 19 1014.6 - 12.8 - - - - - - -
27/06:00pm 13.1 SSW 18 23 1014.4 - 12.8 Recent precip. - - - - - -
27/05:30pm 13.6 SW 17 21 1014.7 - 10.8 - - - - - - -
27/05:13pm 13.8 SSW 22 27 1013.8 - 10.6 - - - - - - -
27/05:00pm 14.1 S 16 21 1013.3 - 10.6 - - - - - - -
27/04:43pm 14.2 S 15 19 1013.2 - 10.6 - - - - - - -
27/04:30pm 14.1 E 3 6 1013.6 - 10.6 - - - - - - -
27/04:00pm 14.4 WSW 12 13 1013.2 - 4.2 - - - - - - -
27/03:30pm 15.8 S 15 22 1012.5 - 0.0 - - - - - - -
27/03:29pm 15.9 S 15 22 1012.4 - 0.0 - - - - - - -
27/03:00pm 18.0 ENE 7 11 1012.4 - 0.0 - - - - - - -
27/02:30pm 18.7 E 8 10 1012.3 - 0.0 - - - - - - -
27/02:00pm 19.9 E 9 11 1012.6 - 0.0 - - - - - - -
27/01:30pm 20.3 E 10 13 1012.7 - 0.0 - - - - - - -
27/01:00pm 20.3 ESE 9 11 1013.5 - 0.0 - - - - - - -
27/12:30pm 19.9 ESE 10 11 1014.0 - 0.0 - - - - - - -
27/12:00pm 19.5 SE 11 12 1014.5 - 0.0 - - - - - - -
27/11:30am 19.3 SSE 13 15 1015.1 - 0.0 - - - - - - -
27/11:00am 19.1 SSE 13 16 1015.6 - 0.0 - - - - - - -
27/10:30am 18.9 SSE 14 17 1015.6 - 0.0 - - - - - - -
27/10:00am 19.4 SSE 12 15 1015.9 - 0.0 - - - - - - -
27/09:30am 19.3 S 7 10 1016.4 - 0.0 - - - - - - -
27/09:00am 18.7 S 6 9 1016.4 - 0.0 - - - - - - -
27/08:30am 18.5 SW 5 7 1016.2 - 0.0 - - - - - - -
27/08:00am 17.8 SSW 5 7 1015.8 - 0.0 - - - - - - -
27/07:30am 17.3 S 7 9 1015.2 - 0.0 - - - - - - -
27/07:00am 16.6 S 9 11 1014.8 - 0.0 - - - - - - -
27/06:30am 16.1 S 11 13 1014.6 - 0.0 - - - - - - -
27/06:00am 15.9 S 12 14 1014.5 - 0.0 - - - - - - -
27/05:30am 15.9 SSW 11 15 1014.3 - 0.0 - - - - - - -
27/05:00am 15.8 W 9 10 1014.4 - 0.0 - - - - - - -
27/04:30am 16.3 SSW 14 17 1014.6 - 0.0 - - - - - - -
27/04:00am 15.8 S 13 17 1014.4 - 0.0 - - - - - - -
27/03:30am 15.7 SSW 14 17 1014.4 - 0.0 - - - - - - -
27/03:00am 15.8 S 15 20 1014.5 - 0.0 - - - - - - -
27/02:30am 15.8 S 13 16 1014.6 - 0.0 - - - - - - -
27/02:00am 15.7 S 12 15 1014.8 - 0.0 - - - - - - -
27/01:30am 16.2 S 12 15 1014.9 - 0.0 - - - - - - -
27/01:00am 16.1 SSW 11 14 1015.4 - 0.0 - - - - - - -
27/12:30am 16.6 S 15 20 1015.6 - 0.0 - - - - - - -
27/12:00am 17.0 S 13 16 1015.7 - 0.0 - - - - - - -
 
Date/Time
EST
Temp

°C
Wind Pressure Rain
since 9am
mm
Weather Cloud Vis
km
Sea
Height
m
Swell
Dir
 
Speed
knots
Gust
knots
hPa Trend Height
m
Period
s
Dir
26/11:30pm 17.4 S 14 18 1015.6 - 0.0 - - - - - - -
26/11:00pm 18.5 SE 18 20 1015.7 - 0.0 - - - - - - -
26/10:30pm 18.4 SE 19 21 1015.7 - 0.0 - - - - - - -
26/10:00pm 18.5 SE 20 23 1015.6 - 0.0 - - - - - - -
26/09:30pm 18.6 SSE 21 24 1015.7 - 0.0 - - - - - - -
26/09:00pm 18.5 SSE 18 22 1015.9 - 0.0 - - - - - - -
26/08:30pm 18.4 SSE 20 24 1015.9 - 0.0 - - - - - - -
26/08:00pm 18.4 SSE 21 25 1015.7 - 0.0 - - - - - - -
26/07:30pm 18.3 SSE 21 24 1015.6 - 0.0 - - - - - - -
26/07:00pm 18.3 SSE 21 24 1015.5 - 0.0 - - - - - - -
26/06:30pm 18.3 SE 22 24 1015.0 - 0.0 - - - - - - -
26/06:00pm 18.2 SSE 20 24 1014.8 - 0.0 - - - - - - -
26/05:30pm 18.3 SSE 20 24 1014.4 - 0.0 - - - - - - -
26/05:00pm 18.4 SSE 17 21 1014.4 - 0.0 - - - - - - -
26/04:30pm 18.5 SSE 21 24 1014.3 - 0.0 - - - - - - -
26/04:00pm 18.6 SSE 19 22 1014.2 - 0.0 - - - - - - -
26/03:30pm 18.7 SSE 20 25 1014.1 - 0.0 - - - - - - -
26/03:00pm 18.8 SSE 21 25 1014.1 - 0.0 - - - - - - -
26/02:30pm 18.8 SSE 22 27 1014.2 - 0.0 - - - - - - -
26/02:00pm 18.8 SSE 23 28 1014.4 - 0.0 - - - - - - -
26/01:30pm 19.0 SSE 24 29 1014.6 - 0.0 - - - - - - -
26/01:00pm 18.9 SSE 22 27 1014.9 - 0.0 - - - - - - -
26/12:30pm 19.0 SSE 21 26 1015.2 - 0.0 - - - - - - -
26/12:00pm 18.8 S 21 27 1015.6 - 0.0 - - - - - - -
26/11:30am 18.8 S 21 27 1016.1 - 0.0 - - - - - - -
26/11:00am 18.7 S 20 24 1016.5 - 0.0 - - - - - - -
26/10:30am 18.4 S 20 25 1016.8 - 0.0 - - - - - - -
26/10:00am 18.0 S 19 24 1016.9 - 0.0 - - - - - - -
26/09:30am 17.6 S 20 25 1017.0 - 0.0 - - - - - - -
26/09:00am 17.4 S 20 25 1016.9 - 0.0 - - - - - - -
26/08:30am 17.2 S 20 25 1016.9 - 0.0 - - - - - - -
26/08:00am 17.0 S 19 26 1016.8 - 0.0 - - - - - - -
26/07:30am 16.7 S 21 27 1016.7 - 0.0 - - - - - - -
26/07:00am 16.6 S 19 25 1016.4 - 0.0 - - - - - - -
26/06:30am 16.5 S 21 27 1016.1 - 0.0 - - - - - - -
26/06:00am 16.5 S 20 25 1016.0 - 0.0 - - - - - - -
26/05:30am 16.6 S 21 26 1015.4 - 0.0 - - - - - - -
26/05:00am 16.3 S 19 24 1015.5 - 0.0 - - - - - - -
26/04:30am 16.5 S 23 28 1015.3 - 0.0 - - - - - - -
26/04:00am 16.6 S 23 29 1015.2 - 0.0 - - - - - - -
26/03:30am 16.6 S 23 27 1015.5 - 0.0 - - - - - - -
26/03:00am 16.6 S 25 29 1015.5 - 0.0 - - - - - - -
26/02:30am 16.5 S 24 29 1015.7 - 0.0 - - - - - - -
26/02:00am 16.4 S 24 29 1015.9 - 0.0 - - - - - - -
26/01:30am 16.6 S 26 31 1016.2 - 0.0 - - - - - - -
26/01:00am 16.5 S 25 31 1016.6 - 0.0 - - - - - - -
26/12:30am 16.6 S 25 32 1016.7 - 0.0 - - - - - - -
26/12:00am 16.7 S 25 30 1017.1 - 0.0 - - - - - - -
 
Date/Time
EST
Temp

°C
Wind Pressure Rain
since 9am
mm
Weather Cloud Vis
km
Sea
Height
m
Swell
Dir
 
Speed
knots
Gust
knots
hPa Trend Height
m
Period
s
Dir
25/11:30pm 17.0 S 23 27 1017.2 - 0.0 - - - - - - -
25/11:00pm 17.8 S 25 32 1017.2 - 0.0 - - - - - - -
25/10:30pm 18.0 SSE 25 29 1017.5 - 0.0 - - - - - - -
25/10:00pm 18.2 SSE 27 32 1017.6 - 0.0 - - - - - - -
25/09:30pm 18.2 SSE 27 31 1017.9 - 0.0 - - - - - - -
25/09:00pm 18.3 SSE 26 32 1017.9 - 0.0 - - - - - - -
25/08:30pm 18.4 SSE 26 32 1017.8 - 0.0 - - - - - - -
25/08:00pm 18.5 SSE 29 34 1017.9 - 0.0 - - - - - - -
25/07:30pm 18.5 SSE 28 32 1017.9 - 0.0 - - - - - - -
25/07:00pm 18.4 SSE 27 32 1017.6 - 0.0 - - - - - - -
25/06:30pm 18.4 SSE 27 33 1017.4 - 0.0 - - - - - - -
25/06:00pm 18.4 SSE 28 34 1017.2 - 0.0 - - - - - - -
25/05:30pm 18.4 SSE 27 33 1017.1 - 0.0 - - - - - - -
25/05:00pm 18.6 SSE 28 35 1016.9 - 0.0 - - - - - - -
25/04:30pm 18.7 SSE 27 33 1016.8 - 0.0 - - - - - - -
25/04:00pm 18.8 SSE 25 32 1016.8 - 0.0 - - - - - - -
25/03:30pm 18.8 S 26 33 1016.8 - 0.0 - - - - - - -
25/03:00pm 18.7 S 25 33 1016.7 - 0.0 - - - - - - -
25/02:30pm 18.8 S 25 32 1016.7 - 0.0 - - - - - - -
25/02:00pm 18.8 SSE 26 34 1016.7 - 0.0 - - - - - - -
25/01:30pm 18.7 S 30 36 1016.7 - 0.0 - - - - - - -

Other Formats:

Comma delimited format used in spreadsheet applications
http://www.bom.gov.au/fwo/IDQ60701/IDQ60701.94584.axf

JavaScript Object Notation format (JSON) in row-major order
http://www.bom.gov.au/fwo/IDQ60701/IDQ60701.94584.json